createdAt,value
2022-11-02T02:29:15.300Z,158
2022-11-02T02:34:15.678Z,158
2022-11-02T02:39:15.168Z,112
2022-11-02T02:44:15.536Z,112
2022-11-02T02:49:15.592Z,135
2022-11-02T02:54:15.938Z,135
2022-11-02T02:59:15.292Z,180
2022-11-02T03:04:16.159Z,180
2022-11-02T03:09:15.632Z,158
2022-11-02T03:14:15.121Z,158
2022-11-02T03:19:15.969Z,135
2022-11-02T03:24:15.717Z,135
2022-11-02T03:29:15.917Z,135
2022-11-02T03:34:16.048Z,135
2022-11-02T03:39:15.551Z,135
2022-11-02T03:44:15.542Z,135
2022-11-02T03:49:15.557Z,135
2022-11-02T03:54:15.930Z,135
2022-11-02T03:59:15.454Z,135
2022-11-02T04:04:15.567Z,135
2022-11-02T04:09:15.708Z,135
2022-11-02T04:14:16.255Z,135
2022-11-02T07:29:15.519Z,135
2022-11-02T07:34:17.521Z,135
2022-11-02T07:39:16.214Z,158
2022-11-02T07:44:15.536Z,158
2022-11-02T07:49:21.836Z,135
2022-11-02T07:54:15.414Z,135
2022-11-02T07:59:15.839Z,248
2022-11-02T08:04:16.278Z,248
2022-11-02T08:09:15.618Z,158
2022-11-02T08:14:15.923Z,158
2022-11-02T08:19:16.160Z,180
2022-11-02T08:24:15.488Z,180
2022-11-02T08:29:15.634Z,202
2022-11-02T08:34:16.279Z,202
2022-11-02T08:39:19.366Z,225
2022-11-02T08:44:15.578Z,225
2022-11-02T08:49:15.940Z,225
2022-11-02T08:54:15.572Z,225
2022-11-02T08:59:16.417Z,248
2022-11-02T09:04:16.388Z,248
2022-11-02T09:09:15.534Z,225
2022-11-02T09:14:16.236Z,225
2022-11-02T09:19:15.503Z,225
2022-11-02T09:24:15.783Z,225
2022-11-02T09:29:16.364Z,248
2022-11-02T09:34:15.676Z,248
2022-11-02T09:39:16.146Z,248
2022-11-02T09:44:15.739Z,248
2022-11-02T09:49:15.743Z,225
2022-11-02T09:54:18.317Z,225
2022-11-02T09:59:15.616Z,225
2022-11-02T10:04:15.605Z,225
2022-11-02T10:09:15.631Z,225
2022-11-02T10:14:16.204Z,225
2022-11-02T10:19:15.486Z,225
2022-11-02T10:24:15.848Z,225
2022-11-02T10:29:16.377Z,225
2022-11-02T10:34:15.676Z,225
2022-11-02T10:39:15.967Z,202
2022-11-02T10:44:15.608Z,202
2022-11-02T10:49:15.837Z,248
2022-11-02T10:54:29.386Z,248
2022-11-02T10:59:15.852Z,202
2022-11-02T11:04:16.029Z,202
2022-11-02T11:09:16.492Z,225
2022-11-02T11:19:41.740Z,248
2022-11-02T11:24:16.187Z,248
2022-11-02T11:29:15.679Z,225
2022-11-02T11:34:16.056Z,225
2022-11-02T11:39:16.495Z,248
2022-11-02T11:44:15.930Z,248
2022-11-02T11:49:16.450Z,248
2022-11-02T11:54:15.716Z,248
2022-11-02T11:59:15.891Z,248
2022-11-02T12:04:16.085Z,248
2022-11-02T12:09:16.420Z,270
2022-11-02T12:14:16.151Z,270
2022-11-02T12:19:15.573Z,270
2022-11-02T12:24:16.125Z,270
2022-11-02T12:29:15.716Z,225
2022-11-02T12:34:16.314Z,225
2022-11-02T12:39:16.258Z,202
2022-11-02T12:44:15.845Z,202
2022-11-02T12:49:16.705Z,202
2022-11-02T12:54:15.948Z,202
2022-11-02T12:59:16.139Z,248
2022-11-02T13:04:16.417Z,248
2022-11-02T13:09:15.778Z,225
2022-11-02T13:14:16.338Z,225
2022-11-02T13:19:16.104Z,270
2022-11-02T13:24:16.255Z,270
2022-11-02T13:29:16.353Z,225
2022-11-02T13:34:15.598Z,225
2022-11-02T13:39:16.331Z,225
2022-11-02T13:44:15.718Z,225
2022-11-02T13:49:16.119Z,248
2022-11-02T13:54:16.373Z,248
2022-11-02T13:59:15.670Z,225
2022-11-02T14:04:16.489Z,225
2022-11-02T14:09:15.810Z,248
2022-11-02T14:14:16.095Z,248
2022-11-02T14:19:20.547Z,270
2022-11-02T14:24:16.165Z,270
2022-11-02T14:29:16.325Z,225
2022-11-02T14:34:16.141Z,225
2022-11-02T14:39:16.095Z,270
2022-11-02T14:44:15.653Z,270
2022-11-02T14:49:15.990Z,248
2022-11-02T14:54:16.190Z,248
2022-11-02T14:59:16.175Z,248
2022-11-02T15:04:16.350Z,248
2022-11-02T15:09:16.030Z,248
2022-11-02T15:14:16.261Z,248
2022-11-02T15:19:15.721Z,225
2022-11-02T15:24:18.022Z,225
2022-11-02T15:29:16.217Z,225
2022-11-02T15:34:16.433Z,225
2022-11-02T15:39:16.572Z,248
2022-11-02T15:44:16.297Z,248
2022-11-02T15:49:16.156Z,225
2022-11-02T15:54:15.957Z,225
2022-11-02T15:59:16.330Z,248
2022-11-02T16:04:16.114Z,248
2022-11-02T16:09:16.041Z,180
2022-11-02T16:14:16.334Z,180
2022-11-02T16:19:15.641Z,248
2022-11-02T16:24:16.113Z,248
2022-11-02T16:29:16.562Z,158
2022-11-02T16:34:15.924Z,158
2022-11-02T16:39:16.503Z,225
2022-11-02T16:44:16.432Z,225
2022-11-02T16:49:15.745Z,202
2022-11-02T16:54:16.121Z,202
2022-11-02T16:59:15.700Z,180
2022-11-02T17:04:16.167Z,180
2022-11-02T17:09:16.513Z,158
2022-11-02T17:14:15.951Z,158
2022-11-02T17:19:16.176Z,202
2022-11-02T17:24:16.406Z,202
2022-11-02T17:29:15.794Z,180
2022-11-02T17:34:16.065Z,180
2022-11-02T17:39:16.003Z,180
2022-11-02T17:44:16.335Z,180
2022-11-02T17:49:16.481Z,180
2022-11-02T17:54:16.667Z,180
2022-11-02T17:59:15.849Z,180
2022-11-02T18:04:16.694Z,180
2022-11-02T18:09:15.842Z,135
2022-11-02T18:14:16.072Z,135
2022-11-02T18:19:16.402Z,225
2022-11-02T18:24:16.786Z,225
2022-11-02T18:29:15.975Z,158
2022-11-02T18:34:16.371Z,158
2022-11-02T18:39:16.226Z,158
2022-11-02T18:44:16.304Z,158
2022-11-02T18:49:16.398Z,158
2022-11-02T18:54:16.644Z,158
2022-11-02T18:59:15.960Z,112
2022-11-02T19:04:18.052Z,112
2022-11-02T19:09:16.368Z,135
2022-11-02T19:14:16.622Z,135
2022-11-02T19:19:15.800Z,202
2022-11-02T19:24:16.494Z,202
2022-11-02T19:29:16.771Z,112
2022-11-02T19:34:16.009Z,112
2022-11-02T19:39:15.930Z,158
2022-11-02T19:44:16.166Z,158
2022-11-02T19:49:16.302Z,112
2022-11-02T19:54:16.693Z,112
2022-11-02T19:59:15.985Z,158
2022-11-02T20:04:16.226Z,158
2022-11-02T20:09:16.678Z,158
2022-11-02T20:14:15.872Z,158
2022-11-02T20:19:16.172Z,158
2022-11-02T20:24:16.297Z,158
2022-11-02T20:29:18.615Z,180
2022-11-02T20:34:15.866Z,180
2022-11-02T20:39:16.046Z,112
2022-11-02T20:44:16.535Z,112
2022-11-02T20:49:49.368Z,180
2022-11-02T20:54:16.754Z,180
2022-11-02T20:59:16.311Z,135
2022-11-02T21:04:21.903Z,135
2022-11-02T21:09:16.633Z,158
2022-11-02T21:14:16.078Z,158
2022-11-02T21:19:16.344Z,180
2022-11-02T21:24:16.030Z,180
2022-11-02T21:29:16.240Z,112
2022-11-02T21:34:16.477Z,112
2022-11-02T21:39:15.827Z,158
2022-11-02T21:44:16.514Z,158
2022-11-02T21:49:15.991Z,135
2022-11-02T21:54:16.360Z,135
2022-11-02T21:59:16.581Z,135
2022-11-02T22:04:16.408Z,135
2022-11-02T22:09:16.634Z,135
2022-11-02T22:14:16.126Z,135
2022-11-02T22:19:16.252Z,135
2022-11-02T22:24:16.553Z,135
2022-11-02T22:29:15.836Z,135
2022-11-02T22:34:16.009Z,135
2022-11-02T22:39:16.059Z,135
2022-11-02T22:44:16.224Z,135
2022-11-02T22:49:16.324Z,135
2022-11-02T22:54:16.724Z,135
2022-11-02T22:59:16.131Z,135
2022-11-02T23:04:16.672Z,135
2022-11-02T23:09:16.052Z,135
2022-11-02T23:14:16.081Z,135
